Time;durP1;ratioP1;P1;durP2;ratioP2;P2;SDS_P1;SDS_P2;PMS_P1;PMS_P2;Temp;Humidity;BMP_temperature;BMP_pressure;BME280_temperature;BME280_humidity;BME280_pressure;Samples;Min_cycle;Max_cycle;Signal;HPM_P1;HPM_P2
2024/01/26 00:01:45;;;;;;;25.83;11.48;;;7.70;99.90;;;;;;6172203;23;20010;-86
2024/01/26 00:04:12;;;;;;;28.17;11.30;;;7.70;99.90;;;;;;6147562;23;20045;-87
2024/01/26 00:06:39;;;;;;;27.85;12.25;;;7.70;99.90;;;;;;6147586;23;20045;-87
2024/01/26 00:09:10;;;;;;;29.50;11.90;;;8.50;99.90;;;;;;6171939;23;20096;-86
2024/01/26 00:11:38;;;;;;;30.88;13.18;;;8.10;99.90;;;;;;6147562;23;20018;-86
2024/01/26 00:14:06;;;;;;;29.83;12.70;;;8.20;99.90;;;;;;6172150;23;20088;-87
2024/01/26 00:16:32;;;;;;;27.65;12.82;;;7.80;99.90;;;;;;6171924;23;20014;-86
2024/01/26 00:18:59;;;;;;;31.02;13.30;;;8.00;99.90;;;;;;6172222;23;20044;-87
2024/01/26 00:21:26;;;;;;;32.22;13.63;;;7.80;99.90;;;;;;6171818;23;20013;-87
2024/01/26 00:23:52;;;;;;;30.60;13.30;;;7.80;99.90;;;;;;6171817;23;20356;-86
2024/01/26 00:26:19;;;;;;;33.08;14.15;;;7.90;99.90;;;;;;6171608;23;20017;-87
2024/01/26 00:28:46;;;;;;;35.25;14.00;;;7.80;99.90;;;;;;6172043;23;20036;-86
2024/01/26 00:31:17;;;;;;;36.17;14.43;;;7.80;99.90;;;;;;6171917;23;20024;-87
2024/01/26 00:33:44;;;;;;;37.90;14.45;;;7.90;99.90;;;;;;6172190;23;20009;-87
2024/01/26 00:36:12;;;;;;;40.95;15.98;;;7.80;99.90;;;;;;6147673;23;20010;-86
2024/01/26 00:38:40;;;;;;;36.22;14.40;;;8.70;99.90;;;;;;6172142;23;20006;-86
2024/01/26 00:41:07;;;;;;;40.03;15.18;;;8.20;99.90;;;;;;6171915;23;20020;-86
2024/01/26 00:43:34;;;;;;;43.28;14.73;;;8.30;99.90;;;;;;6172388;23;20013;-86
2024/01/26 00:46:00;;;;;;;46.13;15.70;;;8.00;99.90;;;;;;6171785;23;20013;-87
2024/01/26 00:48:27;;;;;;;43.03;15.18;;;7.90;99.90;;;;;;6172087;23;20021;-86
2024/01/26 00:50:54;;;;;;;44.38;15.50;;;7.90;99.90;;;;;;6171734;23;20006;-87
2024/01/26 00:53:22;;;;;;;42.65;16.75;;;8.20;99.90;;;;;;6171767;23;20009;-87
2024/01/26 00:55:49;;;;;;;45.17;16.42;;;8.30;99.90;;;;;;6172057;23;20066;-87
2024/01/26 00:58:16;;;;;;;45.30;16.33;;;8.60;99.90;;;;;;6171900;23;20014;-87
2024/01/26 01:00:43;;;;;;;39.45;15.75;;;8.00;99.90;;;;;;6172033;23;20061;-87
2024/01/26 01:03:09;;;;;;;45.33;17.50;;;8.00;99.90;;;;;;6171601;23;20013;-87
2024/01/26 01:05:36;;;;;;;43.78;16.95;;;8.50;99.90;;;;;;6171695;23;20049;-87
2024/01/26 01:08:04;;;;;;;46.05;16.92;;;8.20;99.90;;;;;;6147415;23;20393;-86
2024/01/26 01:10:31;;;;;;;47.05;16.75;;;8.10;99.90;;;;;;6171740;23;20025;-87
2024/01/26 01:12:57;;;;;;;49.25;17.83;;;8.30;99.90;;;;;;6172011;23;20014;-87
2024/01/26 01:15:24;;;;;;;47.97;16.83;;;8.10;99.90;;;;;;6171830;23;20453;-87
2024/01/26 01:17:51;;;;;;;48.38;16.83;;;8.10;99.90;;;;;;6172785;23;20016;-87
2024/01/26 01:20:17;;;;;;;55.65;18.20;;;8.80;99.90;;;;;;6173512;23;20028;-86
2024/01/26 01:22:44;;;;;;;49.10;17.92;;;8.70;99.90;;;;;;6173678;23;20017;-87
2024/01/26 01:25:14;;;;;;;55.42;17.98;;;8.70;99.90;;;;;;6173596;23;20032;-87
2024/01/26 01:27:41;;;;;;;47.92;18.20;;;8.40;99.90;;;;;;6173678;23;20096;-87
2024/01/26 01:30:09;;;;;;;47.40;17.88;;;8.20;99.90;;;;;;6173609;23;20766;-87
2024/01/26 01:32:36;;;;;;;51.45;18.33;;;8.20;99.90;;;;;;6149478;23;20014;-86
2024/01/26 01:35:02;;;;;;;48.92;18.73;;;8.70;99.90;;;;;;6173272;23;20016;-87
2024/01/26 01:37:29;;;;;;;44.95;17.48;;;8.20;99.90;;;;;;6173391;23;20010;-87
2024/01/26 01:39:56;;;;;;;46.40;16.95;;;8.30;99.90;;;;;;6173591;23;20323;-87
2024/01/26 01:42:22;;;;;;;45.45;17.42;;;8.30;99.90;;;;;;6173336;23;20093;-87
2024/01/26 01:44:49;;;;;;;47.35;18.15;;;8.30;99.90;;;;;;6173221;23;20049;-87
2024/01/26 01:47:15;;;;;;;47.45;17.58;;;9.00;99.90;;;;;;6173489;23;20100;-87
2024/01/26 01:49:43;;;;;;;48.55;17.83;;;8.30;99.90;;;;;;6173088;23;20392;-86
2024/01/26 01:52:15;;;;;;;44.83;18.27;;;8.40;99.90;;;;;;6173756;23;20016;-87
2024/01/26 01:54:42;;;;;;;43.63;17.40;;;8.30;99.90;;;;;;6173512;23;20045;-87
2024/01/26 01:57:13;;;;;;;44.45;18.20;;;8.30;99.90;;;;;;6173441;23;20084;-87
2024/01/26 01:59:41;;;;;;;45.22;17.05;;;8.40;99.90;;;;;;6173582;23;20013;-87
2024/01/26 02:02:08;;;;;;;44.88;17.67;;;8.40;99.90;;;;;;6173005;23;20018;-87
2024/01/26 02:04:35;;;;;;;47.25;17.70;;;8.40;99.90;;;;;;6173246;23;20024;-87
2024/01/26 02:07:04;;;;;;;41.33;17.17;;;8.60;99.90;;;;;;6173468;23;20018;-87
2024/01/26 02:09:31;;;;;;;43.90;18.13;;;8.40;99.90;;;;;;6172896;23;20087;-87
2024/01/26 02:11:59;;;;;;;42.95;17.27;;;8.40;99.90;;;;;;6173403;23;20100;-87
2024/01/26 02:14:26;;;;;;;44.30;18.25;;;9.20;99.90;;;;;;6148957;23;20444;-86
2024/01/26 02:16:53;;;;;;;44.30;18.17;;;8.40;99.90;;;;;;6172931;23;20020;-87
2024/01/26 02:19:21;;;;;;;45.38;17.10;;;8.50;99.90;;;;;;6173235;23;20076;-87
2024/01/26 02:21:48;;;;;;;44.15;17.85;;;8.40;99.90;;;;;;6173163;23;20013;-87
2024/01/26 02:24:14;;;;;;;43.97;19.13;;;8.60;99.90;;;;;;6172900;23;20020;-87
2024/01/26 02:26:41;;;;;;;48.28;18.52;;;9.20;99.90;;;;;;6173077;23;20448;-87
2024/01/26 02:29:08;;;;;;;45.85;17.88;;;8.40;99.90;;;;;;6148152;23;20013;-87
2024/01/26 02:31:34;;;;;;;44.15;18.48;;;8.60;99.90;;;;;;6173163;23;20048;-87
2024/01/26 02:34:01;;;;;;;45.63;18.77;;;8.80;99.90;;;;;;6173260;23;20100;-87
2024/01/26 02:36:31;;;;;;;48.60;19.13;;;8.50;99.90;;;;;;6173005;23;20013;-87
2024/01/26 02:38:57;;;;;;;52.75;18.42;;;9.50;99.90;;;;;;6172979;23;20021;-86
2024/01/26 02:41:24;;;;;;;46.53;19.13;;;8.80;99.90;;;;;;6172916;23;20013;-87
2024/01/26 02:43:51;;;;;;;45.13;18.98;;;9.60;99.90;;;;;;6172889;23;20009;-87
2024/01/26 02:46:17;;;;;;;44.38;17.42;;;8.60;99.90;;;;;;6172745;23;20338;-87
2024/01/26 02:48:44;;;;;;;42.15;17.88;;;8.60;99.90;;;;;;6172793;23;20449;-87
2024/01/26 02:51:10;;;;;;;40.35;18.05;;;8.60;99.90;;;;;;6172808;23;20010;-87
2024/01/26 02:53:41;;;;;;;40.65;17.13;;;8.70;99.90;;;;;;6172602;23;20014;-87
2024/01/26 02:56:08;;;;;;;40.80;17.65;;;9.00;99.90;;;;;;6172651;23;20268;-87
2024/01/26 02:58:36;;;;;;;36.70;16.52;;;8.60;99.90;;;;;;6172951;23;20017;-87
2024/01/26 03:01:03;;;;;;;36.00;16.77;;;8.70;99.90;;;;;;6172597;23;20084;-87
2024/01/26 03:03:29;;;;;;;36.00;16.10;;;8.60;99.90;;;;;;6172737;23;20397;-87
2024/01/26 03:05:56;;;;;;;35.03;15.93;;;8.70;99.90;;;;;;6172807;23;20013;-86
2024/01/26 03:08:23;;;;;;;34.65;16.00;;;8.80;99.90;;;;;;6172397;23;20009;-86
2024/01/26 03:10:50;;;;;;;35.45;15.50;;;8.70;99.90;;;;;;6172599;23;20024;-86
2024/01/26 03:13:18;;;;;;;33.30;15.48;;;8.80;99.90;;;;;;6172442;23;20760;-86
2024/01/26 03:15:50;;;;;;;32.30;16.10;;;9.30;99.90;;;;;;6172468;23;20009;-87
2024/01/26 03:18:17;;;;;;;30.90;15.57;;;8.80;99.90;;;;;;6172812;23;20389;-86
2024/01/26 03:20:44;;;;;;;33.17;15.20;;;9.00;99.90;;;;;;6172812;23;20014;-87
2024/01/26 03:23:11;;;;;;;29.05;14.30;;;9.00;99.90;;;;;;6172640;23;20093;-87
2024/01/26 03:25:38;;;;;;;28.38;14.05;;;8.80;99.90;;;;;;6172622;23;20075;-87
2024/01/26 03:28:11;;;;;;;31.10;14.82;;;9.20;99.90;;;;;;6172360;23;20018;-87
2024/01/26 03:30:38;;;;;;;26.77;13.82;;;9.10;99.90;;;;;;6172493;23;20017;-87
2024/01/26 03:33:06;;;;;;;29.77;13.98;;;8.90;99.90;;;;;;6172436;23;20041;-87
2024/01/26 03:35:33;;;;;;;26.90;13.80;;;8.90;99.90;;;;;;6172458;23;20041;-87
2024/01/26 03:37:59;;;;;;;27.92;13.65;;;8.90;99.90;;;;;;6172190;23;20016;-87
2024/01/26 03:40:27;;;;;;;28.88;13.93;;;8.90;99.90;;;;;;6147596;23;20563;-87
2024/01/26 03:42:54;;;;;;;29.65;13.98;;;8.90;99.90;;;;;;6172333;23;20344;-87
2024/01/26 03:45:20;;;;;;;24.80;11.98;;;9.00;99.90;;;;;;6171951;23;20092;-87
2024/01/26 03:47:47;;;;;;;28.20;14.05;;;9.00;99.90;;;;;;6172257;23;20023;-87
2024/01/26 03:50:14;;;;;;;23.83;12.30;;;8.90;99.90;;;;;;6172410;23;20017;-87
2024/01/26 03:52:40;;;;;;;26.27;13.45;;;8.90;99.90;;;;;;6172264;23;20045;-87
2024/01/26 03:55:08;;;;;;;24.10;12.68;;;9.00;99.90;;;;;;6172502;23;20017;-86
2024/01/26 03:57:35;;;;;;;27.60;12.18;;;9.00;99.90;;;;;;6196828;23;20428;-87
2024/01/26 04:00:06;;;;;;;23.00;12.55;;;8.90;99.90;;;;;;6171996;23;20021;-87
2024/01/26 04:02:32;;;;;;;23.73;11.77;;;9.00;99.90;;;;;;6172225;23;20092;-87
2024/01/26 04:04:59;;;;;;;24.83;12.25;;;9.00;99.90;;;;;;6172279;23;20088;-87
2024/01/26 04:07:25;;;;;;;24.23;12.63;;;9.00;99.90;;;;;;6172270;23;20013;-87
2024/01/26 04:09:52;;;;;;;22.65;12.82;;;9.40;99.90;;;;;;6172290;23;20460;-87
2024/01/26 04:12:19;;;;;;;22.50;12.82;;;9.00;99.90;;;;;;6172353;23;20009;-87
2024/01/26 04:14:46;;;;;;;24.02;12.15;;;9.50;99.90;;;;;;6172289;23;20024;-87
2024/01/26 04:17:12;;;;;;;21.00;11.25;;;9.10;99.90;;;;;;6172186;23;20021;-87
2024/01/26 04:19:39;;;;;;;24.70;12.68;;;9.10;99.90;;;;;;6172144;23;20018;-87
2024/01/26 04:22:06;;;;;;;23.30;12.48;;;9.10;99.90;;;;;;6147736;23;20019;-87
2024/01/26 04:24:34;;;;;;;23.90;12.30;;;9.10;99.90;;;;;;6172192;23;20017;-87
2024/01/26 04:27:01;;;;;;;25.25;12.77;;;9.20;99.90;;;;;;6172127;23;20017;-87
2024/01/26 04:29:28;;;;;;;26.23;13.50;;;9.10;99.90;;;;;;6172057;23;20822;-87
2024/01/26 04:31:54;;;;;;;22.83;12.60;;;9.20;99.90;;;;;;6148016;23;20782;-87
2024/01/26 04:34:21;;;;;;;24.65;13.23;;;9.20;99.90;;;;;;6171868;23;20020;-87
2024/01/26 04:36:48;;;;;;;23.63;11.85;;;9.20;99.90;;;;;;6172084;23;20049;-87
2024/01/26 04:39:15;;;;;;;27.10;12.98;;;9.20;99.90;;;;;;6172109;23;20116;-87
2024/01/26 04:41:43;;;;;;;23.92;13.10;;;9.60;99.90;;;;;;6172459;23;20024;-87
2024/01/26 04:44:10;;;;;;;25.20;12.80;;;9.20;99.90;;;;;;6171851;23;20018;-87
2024/01/26 04:46:36;;;;;;;25.35;12.95;;;9.30;99.90;;;;;;6172468;23;20445;-87
2024/01/26 04:49:03;;;;;;;23.35;12.85;;;9.20;99.90;;;;;;6171969;23;20049;-87
2024/01/26 04:51:30;;;;;;;25.40;12.30;;;9.20;99.90;;;;;;6172322;23;20020;-87
2024/01/26 04:53:56;;;;;;;24.95;12.98;;;9.30;99.90;;;;;;6174071;23;20093;-86
2024/01/26 04:56:23;;;;;;;21.40;11.13;;;9.20;99.90;;;;;;6174261;23;20060;-87
2024/01/26 04:58:50;;;;;;;29.65;13.75;;;9.20;99.90;;;;;;6174120;23;20005;-86
2024/01/26 05:01:16;;;;;;;26.65;13.07;;;9.20;99.90;;;;;;6173887;23;20348;-87
2024/01/26 05:03:43;;;;;;;28.63;12.80;;;9.20;99.90;;;;;;6173974;23;20024;-87
2024/01/26 05:06:10;;;;;;;25.23;13.20;;;9.30;99.90;;;;;;6173878;23;20084;-87
2024/01/26 05:08:38;;;;;;;22.65;13.02;;;9.30;99.90;;;;;;6173879;23;20014;-87
2024/01/26 05:11:05;;;;;;;26.95;12.30;;;9.30;99.90;;;;;;6174054;23;20016;-87
2024/01/26 05:13:32;;;;;;;24.75;12.90;;;9.60;99.90;;;;;;6174030;23;20009;-87
2024/01/26 05:15:58;;;;;;;27.45;11.98;;;9.30;99.90;;;;;;6173606;23;20044;-87
2024/01/26 05:18:25;;;;;;;25.67;13.25;;;9.60;99.90;;;;;;6149626;23;20052;-87
2024/01/26 05:20:51;;;;;;;25.42;12.43;;;9.60;99.90;;;;;;6173742;23;20025;-87
2024/01/26 05:23:18;;;;;;;25.58;13.18;;;9.70;99.90;;;;;;6173848;23;20039;-87
2024/01/26 05:25:45;;;;;;;26.83;13.02;;;9.40;99.90;;;;;;6173868;23;20013;-88
2024/01/26 05:28:11;;;;;;;25.15;12.98;;;9.50;99.90;;;;;;6173829;23;20456;-87
2024/01/26 05:30:38;;;;;;;24.77;12.63;;;9.40;99.90;;;;;;6173697;23;20013;-87
2024/01/26 05:33:05;;;;;;;28.40;12.70;;;9.60;99.90;;;;;;6173736;23;20740;-87
2024/01/26 05:35:31;;;;;;;25.00;13.30;;;9.40;99.90;;;;;;6173651;23;20068;-87
2024/01/26 05:37:58;;;;;;;24.33;12.77;;;9.60;99.90;;;;;;6173642;23;20052;-87
2024/01/26 05:40:25;;;;;;;22.83;12.93;;;10.00;99.90;;;;;;6173724;23;20018;-87
2024/01/26 05:42:52;;;;;;;26.60;13.70;;;9.50;99.90;;;;;;6173669;23;20009;-87
2024/01/26 05:45:19;;;;;;;25.83;13.65;;;9.60;99.90;;;;;;6173623;23;20347;-87
2024/01/26 05:47:47;;;;;;;25.58;13.55;;;9.50;99.90;;;;;;6173574;23;20049;-87
2024/01/26 05:50:15;;;;;;;26.55;13.77;;;9.60;99.90;;;;;;6173605;23;20052;-87
2024/01/26 05:52:42;;;;;;;27.25;14.15;;;9.60;99.90;;;;;;6173556;23;20841;-87
2024/01/26 05:55:09;;;;;;;26.35;13.38;;;10.00;99.90;;;;;;6173763;23;20014;-87
2024/01/26 05:57:35;;;;;;;25.60;13.15;;;9.70;99.90;;;;;;6173454;23;20483;-87
2024/01/26 06:00:02;;;;;;;26.08;14.10;;;9.60;99.90;;;;;;6173165;23;20017;-87
2024/01/26 06:02:29;;;;;;;26.25;14.25;;;9.70;99.90;;;;;;6173018;23;20345;-86
2024/01/26 06:04:55;;;;;;;24.10;13.60;;;9.60;99.90;;;;;;6173485;23;20088;-87
2024/01/26 06:07:22;;;;;;;26.02;14.27;;;9.70;99.90;;;;;;6173275;23;20045;-87
2024/01/26 06:09:48;;;;;;;28.38;14.18;;;9.70;99.90;;;;;;6173371;23;20396;-87
2024/01/26 06:12:15;;;;;;;26.85;14.77;;;9.70;99.90;;;;;;6173295;23;20013;-88
2024/01/26 06:14:42;;;;;;;23.92;13.10;;;9.70;99.90;;;;;;6173298;23;20024;-87
2024/01/26 06:17:08;;;;;;;26.63;14.07;;;10.40;99.90;;;;;;6173161;23;20017;-87
2024/01/26 06:19:37;;;;;;;25.35;13.73;;;9.70;99.90;;;;;;6173942;23;20480;-87
2024/01/26 06:22:04;;;;;;;30.50;13.77;;;9.80;99.90;;;;;;6173416;23;20017;-87
2024/01/26 06:24:31;;;;;;;25.67;13.95;;;10.00;99.90;;;;;;6173478;23;20014;-87
2024/01/26 06:26:57;;;;;;;24.85;13.73;;;9.80;99.90;;;;;;6173448;23;20460;-88
2024/01/26 06:29:24;;;;;;;25.55;13.63;;;9.80;99.90;;;;;;6173352;23;20020;-87
2024/01/26 06:31:51;;;;;;;25.58;12.93;;;9.90;99.90;;;;;;6173389;23;20010;-87
2024/01/26 06:34:18;;;;;;;23.92;13.02;;;9.80;99.90;;;;;;6172936;23;20044;-86
2024/01/26 06:36:45;;;;;;;25.67;13.13;;;9.80;99.90;;;;;;6173490;23;20005;-87
2024/01/26 06:39:12;;;;;;;24.20;12.65;;;9.90;99.90;;;;;;6173062;23;20096;-86
2024/01/26 06:41:42;;;;;;;24.10;12.98;;;9.80;99.90;;;;;;6172779;23;20052;-86
2024/01/26 06:44:09;;;;;;;23.08;13.05;;;9.80;99.90;;;;;;6172655;23;20025;-86
2024/01/26 06:46:36;;;;;;;24.30;12.95;;;9.80;99.90;;;;;;6172914;23;20020;-87
2024/01/26 06:49:03;;;;;;;22.60;12.10;;;9.80;99.90;;;;;;6172867;23;20411;-86
2024/01/26 06:51:29;;;;;;;20.00;12.48;;;9.80;99.90;;;;;;6172610;23;20040;-86
2024/01/26 06:53:56;;;;;;;22.63;11.63;;;10.50;99.90;;;;;;6172530;23;20009;-87
2024/01/26 06:56:23;;;;;;;24.15;12.27;;;9.90;99.90;;;;;;6172771;23;20322;-86
2024/01/26 06:58:49;;;;;;;23.90;11.15;;;9.90;99.90;;;;;;6172459;23;20013;-87
2024/01/26 07:01:16;;;;;;;20.45;10.63;;;10.60;99.90;;;;;;6172678;23;20020;-86
2024/01/26 07:03:43;;;;;;;24.50;11.55;;;9.90;99.90;;;;;;6172173;23;20468;-87
2024/01/26 07:06:09;;;;;;;18.77;10.63;;;9.90;99.90;;;;;;6172375;23;20021;-86
2024/01/26 07:08:36;;;;;;;20.55;11.13;;;9.90;99.90;;;;;;6172306;23;20452;-86
2024/01/26 07:11:03;;;;;;;19.65;10.60;;;10.00;99.90;;;;;;6172333;23;20020;-86
2024/01/26 07:13:30;;;;;;;17.40;9.60;;;9.90;99.90;;;;;;6172289;23;20017;-87
2024/01/26 07:15:56;;;;;;;20.90;10.23;;;10.00;99.90;;;;;;6171129;23;20009;-87
2024/01/26 07:18:23;;;;;;;17.15;8.55;;;10.30;99.90;;;;;;6172753;23;20045;-87
2024/01/26 07:20:49;;;;;;;16.88;8.50;;;10.00;99.90;;;;;;6148423;23;20049;-87
2024/01/26 07:23:16;;;;;;;16.00;7.82;;;10.00;99.90;;;;;;6148086;23;20022;-87
2024/01/26 07:25:43;;;;;;;16.40;8.02;;;10.00;99.90;;;;;;6148260;23;20448;-87
2024/01/26 07:28:09;;;;;;;13.77;7.32;;;10.20;99.90;;;;;;6148288;23;20021;-87
2024/01/26 07:30:36;;;;;;;11.50;7.05;;;10.00;99.90;;;;;;6172637;23;20009;-86
2024/01/26 07:33:03;;;;;;;14.30;7.95;;;10.00;99.90;;;;;;6172086;23;20057;-86
2024/01/26 07:35:29;;;;;;;16.98;7.32;;;10.00;99.90;;;;;;6147474;23;20013;-86
2024/01/26 07:37:57;;;;;;;12.50;7.13;;;10.00;99.90;;;;;;6171620;23;20005;-86
2024/01/26 07:40:23;;;;;;;14.68;7.28;;;10.00;99.90;;;;;;6171752;23;20092;-86
2024/01/26 07:42:50;;;;;;;14.98;6.65;;;10.30;99.90;;;;;;6171464;23;20092;-86
2024/01/26 07:45:16;;;;;;;11.13;6.47;;;10.00;99.90;;;;;;6147441;23;20013;-86
2024/01/26 07:47:43;;;;;;;15.15;7.13;;;10.30;99.90;;;;;;6146933;23;20356;-87
2024/01/26 07:50:10;;;;;;;11.82;6.63;;;10.10;99.90;;;;;;6146367;23;20092;-87
2024/01/26 07:52:37;;;;;;;13.38;6.25;;;10.10;99.90;;;;;;6146577;23;20314;-85
2024/01/26 07:55:04;;;;;;;12.30;6.07;;;10.10;99.90;;;;;;6146823;23;20016;-86
2024/01/26 07:57:31;;;;;;;9.80;6.03;;;10.10;99.90;;;;;;6146225;23;20009;-86
2024/01/26 07:59:58;;;;;;;10.13;5.43;;;10.10;99.90;;;;;;6145915;23;20028;-86
2024/01/26 08:02:25;;;;;;;10.43;5.57;;;10.30;99.90;;;;;;6148921;23;20325;-86
2024/01/26 08:04:53;;;;;;;9.75;5.10;;;10.20;99.90;;;;;;6146274;23;20447;-86
2024/01/26 08:07:20;;;;;;;12.35;5.88;;;10.30;99.90;;;;;;6147823;23;20023;-86
2024/01/26 08:09:47;;;;;;;10.63;5.10;;;10.20;99.90;;;;;;6146196;23;20328;-86
2024/01/26 08:12:14;;;;;;;9.30;4.93;;;10.20;99.90;;;;;;6146758;23;20015;-87
2024/01/26 08:14:40;;;;;;;8.43;4.78;;;10.30;99.90;;;;;;6171026;23;20013;-86
2024/01/26 08:17:07;;;;;;;9.77;5.22;;;10.30;99.90;;;;;;6141552;23;20093;-86
2024/01/26 08:19:35;;;;;;;8.25;4.97;;;10.20;99.90;;;;;;6166234;23;20022;-86
2024/01/26 08:22:03;;;;;;;8.68;5.47;;;10.70;99.90;;;;;;6141937;23;20449;-86
2024/01/26 08:24:30;;;;;;;7.82;4.72;;;10.30;99.90;;;;;;6142039;23;20064;-86
2024/01/26 08:26:57;;;;;;;10.02;5.00;;;10.30;99.90;;;;;;6141871;23;20100;-86
2024/01/26 08:29:26;;;;;;;7.57;5.10;;;10.50;99.90;;;;;;6141540;23;20096;-86
2024/01/26 08:31:53;;;;;;;6.72;4.40;;;10.30;99.90;;;;;;6141649;23;20021;-86
2024/01/26 08:34:20;;;;;;;7.45;4.25;;;10.30;99.90;;;;;;6140768;23;20089;-85
2024/01/26 08:36:47;;;;;;;7.30;3.78;;;10.30;99.90;;;;;;6141373;23;20783;-86
2024/01/26 08:39:14;;;;;;;5.72;3.33;;;10.30;99.90;;;;;;6141246;23;20018;-85
2024/01/26 08:41:43;;;;;;;6.80;3.92;;;10.30;99.90;;;;;;6166186;23;20445;-85
2024/01/26 08:44:11;;;;;;;7.38;3.97;;;10.40;99.90;;;;;;6141580;23;20061;-85
2024/01/26 08:46:38;;;;;;;6.97;4.03;;;10.30;99.90;;;;;;6140833;23;20509;-86
2024/01/26 08:49:06;;;;;;;7.40;3.92;;;10.50;99.90;;;;;;6141627;23;20010;-86
2024/01/26 08:51:32;;;;;;;6.07;3.33;;;10.40;99.90;;;;;;6166606;23;20006;-86
2024/01/26 08:53:59;;;;;;;5.10;2.97;;;10.30;99.90;;;;;;6141581;23;20085;-85
2024/01/26 08:56:26;;;;;;;4.85;3.05;;;10.30;99.90;;;;;;6166003;23;20025;-86
2024/01/26 08:58:54;;;;;;;5.35;3.33;;;10.40;99.90;;;;;;6165994;23;20010;-86
2024/01/26 09:01:23;;;;;;;3.80;2.20;;;10.40;99.90;;;;;;6165771;23;20500;-85
2024/01/26 09:03:50;;;;;;;4.10;2.10;;;10.50;99.90;;;;;;6141603;23;20018;-85
2024/01/26 09:06:17;;;;;;;3.92;1.98;;;10.40;99.90;;;;;;6141281;23;20570;-85
2024/01/26 09:08:43;;;;;;;3.15;1.70;;;10.70;99.90;;;;;;6141608;23;20088;-85
2024/01/26 09:11:10;;;;;;;3.80;1.70;;;10.40;99.90;;;;;;6166103;23;20073;-85
2024/01/26 09:13:37;;;;;;;3.88;2.13;;;10.50;99.90;;;;;;6140753;23;20450;-85
2024/01/26 09:16:03;;;;;;;5.53;2.42;;;10.50;99.90;;;;;;6144464;23;20010;-86
2024/01/26 09:18:30;;;;;;;4.55;2.42;;;10.50;99.90;;;;;;6170947;23;20059;-87
2024/01/26 09:20:57;;;;;;;6.65;2.78;;;10.50;99.90;;;;;;6147166;23;20014;-86
2024/01/26 09:23:23;;;;;;;6.75;2.67;;;10.60;99.90;;;;;;6146640;23;20750;-86
2024/01/26 09:25:50;;;;;;;6.07;2.92;;;10.80;99.90;;;;;;6170059;23;20009;-85
2024/01/26 09:28:16;;;;;;;6.43;3.00;;;10.60;99.90;;;;;;6146680;23;20017;-86
2024/01/26 09:30:43;;;;;;;7.63;2.78;;;10.60;99.90;;;;;;6146257;23;20092;-85
2024/01/26 09:33:10;;;;;;;9.20;3.20;;;10.60;99.90;;;;;;6146514;23;20385;-85
2024/01/26 09:35:36;;;;;;;6.72;3.28;;;10.60;99.90;;;;;;6171431;23;20010;-85
2024/01/26 09:38:03;;;;;;;8.18;2.90;;;11.00;99.90;;;;;;6146892;23;20035;-85
2024/01/26 09:40:30;;;;;;;8.27;2.47;;;10.60;99.90;;;;;;6147542;23;20021;-85
2024/01/26 09:42:57;;;;;;;6.32;1.30;;;10.50;99.90;;;;;;6147987;23;20010;-86
2024/01/26 09:45:23;;;;;;;5.47;1.10;;;10.30;99.90;;;;;;6148007;23;20018;-86
2024/01/26 09:47:52;;;;;;;5.45;1.27;;;10.10;99.90;;;;;;6148487;23;20068;-85
2024/01/26 09:50:21;;;;;;;2.78;1.08;;;9.90;99.90;;;;;;6172599;23;20452;-85
2024/01/26 09:52:50;;;;;;;4.50;0.95;;;9.80;99.90;;;;;;6148291;23;20013;-85
2024/01/26 09:55:18;;;;;;;4.03;0.80;;;9.80;99.90;;;;;;6148184;23;20013;-87
2024/01/26 09:57:45;;;;;;;3.10;0.93;;;9.70;99.90;;;;;;6148127;23;20088;-86
2024/01/26 10:00:13;;;;;;;3.05;0.82;;;9.60;99.90;;;;;;6148700;23;20092;-85
2024/01/26 10:02:43;;;;;;;4.63;0.90;;;9.50;99.90;;;;;;6147947;23;20028;-86
2024/01/26 10:05:12;;;;;;;5.55;0.90;;;9.40;99.90;;;;;;6147996;23;20088;-84
2024/01/26 10:07:39;;;;;;;4.93;1.15;;;9.40;99.90;;;;;;6148048;23;20052;-84
2024/01/26 10:10:06;;;;;;;3.65;0.77;;;9.40;99.90;;;;;;6148253;23;20013;-86
2024/01/26 10:12:35;;;;;;;5.72;1.15;;;9.40;99.90;;;;;;6147806;23;20013;-85
2024/01/26 10:15:04;;;;;;;8.68;1.52;;;9.30;99.90;;;;;;6172575;23;20016;-85
2024/01/26 10:17:30;;;;;;;4.95;1.02;;;9.30;99.90;;;;;;6142680;23;20010;-85
2024/01/26 10:20:08;;;;;;;5.20;1.13;;;9.20;99.90;;;;;;6142805;23;20017;-87
2024/01/26 10:22:36;;;;;;;9.25;1.45;;;9.10;99.90;;;;;;6143146;23;20020;-86
2024/01/26 10:25:04;;;;;;;4.40;1.15;;;9.10;99.90;;;;;;6167489;23;20053;-86
2024/01/26 10:27:32;;;;;;;7.47;1.40;;;9.00;99.90;;;;;;6167062;23;20016;-88
2024/01/26 10:29:58;;;;;;;7.80;1.60;;;9.10;99.90;;;;;;6168339;23;20044;-92
2024/01/26 10:32:27;;;;;;;7.10;1.45;;;8.90;99.90;;;;;;6143798;23;20097;-92
2024/01/26 10:34:59;;;;;;;9.88;1.70;;;9.60;99.90;;;;;;6144025;23;20544;-90
2024/01/26 10:37:28;;;;;;;9.43;1.75;;;8.80;99.90;;;;;;6143763;23;20017;-90
2024/01/26 10:39:56;;;;;;;10.70;1.73;;;8.70;99.90;;;;;;6143627;23;20449;-90
2024/01/26 10:42:23;;;;;;;11.38;1.83;;;8.70;99.90;;;;;;6143755;23;20086;-89
2024/01/26 10:44:51;;;;;;;18.10;3.30;;;8.70;99.90;;;;;;6143543;23;20093;-90
2024/01/26 10:47:18;;;;;;;15.52;2.10;;;9.00;99.90;;;;;;6143699;23;20057;-90
2024/01/26 10:49:49;;;;;;;10.98;1.92;;;8.60;99.90;;;;;;6143147;23;20022;-90
2024/01/26 10:52:20;;;;;;;10.50;1.80;;;8.50;99.90;;;;;;6143752;23;20093;-92
2024/01/26 10:54:51;;;;;;;8.27;1.50;;;8.50;99.90;;;;;;6143543;23;20021;-92
2024/01/26 10:57:19;;;;;;;19.20;3.22;;;8.40;99.90;;;;;;6143944;23;20128;-92
2024/01/26 10:59:47;;;;;;;15.32;2.53;;;8.40;99.90;;;;;;6168437;23;20449;-92
2024/01/26 11:02:30;;;;;;;15.07;2.20;;;9.30;99.90;;;;;;6143780;23;20013;-92
2024/01/26 11:05:02;;;;;;;9.48;1.83;;;8.40;99.90;;;;;;6143854;23;20020;-92
2024/01/26 11:07:34;;;;;;;14.50;2.28;;;8.40;99.90;;;;;;6143716;23;20010;-91
2024/01/26 11:10:04;;;;;;;17.90;2.83;;;8.80;99.90;;;;;;6143657;23;20014;-92
2024/01/26 11:12:34;;;;;;;12.63;1.73;;;8.40;99.90;;;;;;6143285;23;20010;-92
2024/01/26 11:15:13;;;;;;;10.10;2.03;;;8.60;99.90;;;;;;6143515;23;20021;-92
2024/01/26 11:17:49;;;;;;;13.65;1.85;;;8.50;99.90;;;;;;6143439;23;20018;-93
2024/01/26 11:20:30;;;;;;;11.25;2.22;;;8.50;99.90;;;;;;6144058;23;20053;-92
2024/01/26 11:23:14;;;;;;;11.98;2.35;;;8.70;99.90;;;;;;6143685;23;20049;-92
2024/01/26 11:25:47;;;;;;;10.07;1.92;;;8.70;99.90;;;;;;6143712;23;20105;-91
2024/01/26 11:28:23;;;;;;;10.93;2.40;;;8.50;99.90;;;;;;6143594;23;20457;-92
2024/01/26 11:30:54;;;;;;;;;;;8.60;99.90;;;;;;6144196;23;20532;-92
2024/01/26 11:33:21;;;;;;;10.75;1.85;;;8.60;99.90;;;;;;6144591;23;20244;-92
2024/01/26 11:35:48;;;;;;;11.90;2.03;;;8.70;99.90;;;;;;6152889;23;20036;-92
2024/01/26 11:38:15;;;;;;;14.15;2.05;;;8.50;99.90;;;;;;6149593;23;20012;-93
2024/01/26 11:40:42;;;;;;;13.45;2.00;;;8.50;99.90;;;;;;6143367;23;20059;-93
2024/01/26 11:43:10;;;;;;;15.07;2.03;;;8.50;99.90;;;;;;6143510;23;20100;-93
2024/01/26 11:45:45;;;;;;;13.48;2.00;;;8.60;99.90;;;;;;6143118;23;20018;-93
2024/01/26 11:48:13;;;;;;;14.18;2.25;;;8.60;99.90;;;;;;6143282;23;20014;-93
2024/01/26 11:50:44;;;;;;;12.75;2.00;;;8.40;99.90;;;;;;6143537;23;20390;-94
2024/01/26 11:53:14;;;;;;;15.35;2.72;;;9.40;99.90;;;;;;6143391;23;20021;-92
2024/01/26 11:55:42;;;;;;;14.25;1.92;;;9.00;99.90;;;;;;6143086;23;20093;-93
2024/01/26 11:58:09;;;;;;;11.27;1.98;;;8.60;99.90;;;;;;6144152;23;20517;-93
2024/01/26 12:00:36;;;;;;;15.82;2.47;;;8.80;99.90;;;;;;6167360;23;20014;-93
2024/01/26 12:03:08;;;;;;;11.85;2.05;;;8.40;99.90;;;;;;6142996;23;20049;-94
2024/01/26 12:05:35;;;;;;;16.80;2.67;;;8.40;99.90;;;;;;6143521;23;20018;-92
2024/01/26 12:08:05;;;;;;;9.13;1.80;;;8.40;99.90;;;;;;6143542;23;20021;-92
2024/01/26 12:10:33;;;;;;;13.00;2.13;;;8.40;99.90;;;;;;6142817;23;20022;-92
2024/01/26 12:13:00;;;;;;;13.05;2.03;;;8.50;99.90;;;;;;6143464;23;20021;-92
2024/01/26 12:15:31;;;;;;;13.82;2.13;;;9.20;99.90;;;;;;6143177;23;20014;-93
2024/01/26 12:17:59;;;;;;;23.02;3.00;;;9.20;99.90;;;;;;6142919;23;20025;-93
2024/01/26 12:20:25;;;;;;;18.40;2.78;;;8.30;99.90;;;;;;6142982;23;20018;-92
2024/01/26 12:22:55;;;;;;;12.30;2.08;;;8.40;99.90;;;;;;6143102;23;20014;-93
2024/01/26 12:25:27;;;;;;;13.27;1.95;;;8.40;99.90;;;;;;6142771;23;20019;-93
2024/01/26 12:27:55;;;;;;;16.90;1.95;;;8.90;99.90;;;;;;6142933;23;20014;-93
2024/01/26 12:30:21;;;;;;;12.77;2.20;;;9.10;99.90;;;;;;6143077;23;20018;-93
2024/01/26 12:32:48;;;;;;;15.38;2.78;;;8.80;99.90;;;;;;6143092;23;20022;-93
2024/01/26 12:35:14;;;;;;;11.05;2.30;;;8.50;99.90;;;;;;6143445;23;20014;-93
2024/01/26 12:37:44;;;;;;;12.48;2.65;;;8.00;99.90;;;;;;6142829;23;20010;-92
2024/01/26 12:40:11;;;;;;;16.92;2.35;;;8.10;99.90;;;;;;6143093;23;20445;-91
2024/01/26 12:42:40;;;;;;;18.00;2.17;;;7.80;99.90;;;;;;6143222;23;20025;-93